Time;durP1;ratioP1;P1;durP2;ratioP2;P2;SDS_P1;SDS_P2;PMS_P1;PMS_P2;Temp;Humidity;BMP_temperature;BMP_pressure;BME280_temperature;BME280_humidity;BME280_pressure;Samples;Min_cycle;Max_cycle;Signal;HPM_P1;HPM_P2
2023/04/16 00:01:57;;;;;;;5.13;1.40;;;;;;;9.76;85.61;101355.75;5030988;28;20068;-48
2023/04/16 00:04:24;;;;;;;8.73;2.47;;;;;;;9.78;85.54;101345.16;5030808;28;20062;-48
2023/04/16 00:06:51;;;;;;;6.85;1.90;;;;;;;9.76;85.61;101353.81;5029508;28;20099;-45
2023/04/16 00:09:18;;;;;;;10.57;2.15;;;;;;;9.74;85.81;101349.75;5030759;28;20414;-45
2023/04/16 00:11:45;;;;;;;5.68;2.30;;;;;;;9.68;86.24;101362.09;5030480;28;20053;-47
2023/04/16 00:14:11;;;;;;;11.75;2.20;;;;;;;9.68;86.59;101362.09;5032509;28;20376;-48
2023/04/16 00:16:38;;;;;;;7.47;1.80;;;;;;;9.72;86.73;101357.53;5030402;28;20407;-48
2023/04/16 00:19:05;;;;;;;2.63;1.48;;;;;;;9.69;86.79;101360.94;5030174;28;20136;-48
2023/04/16 00:21:32;;;;;;;12.82;2.10;;;;;;;9.68;86.78;101364.84;5030439;28;20045;-45
2023/04/16 00:23:59;;;;;;;7.78;2.45;;;;;;;9.68;87.01;101356.56;5030668;28;20049;-45
2023/04/16 00:26:26;;;;;;;4.43;2.13;;;;;;;9.67;87.16;101361.28;5030259;28;20057;-45
2023/04/16 00:28:53;;;;;;;7.03;2.15;;;;;;;9.75;87.29;101363.22;5029371;28;20782;-44
2023/04/16 00:31:27;;;;;;;8.98;2.55;;;;;;;9.76;87.21;101359.34;5037212;28;20049;-45
2023/04/16 00:33:54;;;;;;;9.15;2.00;;;;;;;9.77;87.43;101369.25;5030534;28;20037;-49
2023/04/16 00:36:22;;;;;;;10.93;2.70;;;;;;;9.78;87.43;101356.22;5030759;28;20072;-47
2023/04/16 00:38:50;;;;;;;3.53;2.05;;;;;;;9.81;87.77;101363.88;5030572;28;20041;-44
2023/04/16 00:41:17;;;;;;;6.57;2.05;;;;;;;9.81;87.70;101355.59;5028932;28;20059;-45
2023/04/16 00:43:43;;;;;;;5.82;3.13;;;;;;;9.81;87.83;101358.34;5030442;28;20041;-49
2023/04/16 00:46:11;;;;;;;7.65;3.00;;;;;;;9.81;87.92;101361.13;5029285;28;20046;-45
2023/04/16 00:48:40;;;;;;;7.32;2.70;;;;;;;9.79;88.15;101358.66;5029680;28;20041;-48
2023/04/16 00:51:08;;;;;;;5.95;3.00;;;;;;;9.78;88.23;101357.06;5038982;28;20064;-48
2023/04/16 00:53:35;;;;;;;7.13;2.90;;;;;;;9.80;88.55;101353.94;5031339;28;20057;-45
2023/04/16 00:56:04;;;;;;;5.22;2.72;;;;;;;9.81;88.66;101347.28;5029862;28;20050;-47
2023/04/16 00:58:33;;;;;;;9.05;3.13;;;;;;;9.81;88.73;101347.28;5017210;28;20041;-44
2023/04/16 01:01:00;;;;;;;9.57;3.20;;;;;;;9.83;88.58;101345.00;5027928;28;20053;-44
2023/04/16 01:03:38;;;;;;;8.10;3.00;;;;;;;9.84;88.75;101338.34;5029981;28;20103;-44
2023/04/16 01:06:06;;;;;;;5.18;2.85;;;;;;;9.85;88.92;101345.50;5028315;28;20450;-44
2023/04/16 01:08:32;;;;;;;10.40;2.92;;;;;;;9.86;88.82;101341.59;5029920;28;20049;-45
2023/04/16 01:10:59;;;;;;;12.05;5.45;;;;;;;9.84;88.94;101343.88;5029773;28;20053;-44
2023/04/16 01:13:26;;;;;;;8.80;4.03;;;;;;;9.83;88.96;101336.72;5029421;28;20087;-44
2023/04/16 01:15:52;;;;;;;11.43;4.38;;;;;;;9.82;89.17;101340.63;5029138;28;21543;-44
2023/04/16 01:18:21;;;;;;;8.32;3.83;;;;;;;9.80;89.23;101337.34;5029282;28;20507;-44
2023/04/16 01:20:49;;;;;;;24.20;4.50;;;;;;;9.79;89.28;101339.31;5028023;28;20152;-44
2023/04/16 01:23:20;;;;;;;9.55;3.35;;;;;;;9.79;89.48;101335.75;5029261;28;20485;-51
2023/04/16 01:25:47;;;;;;;6.60;2.70;;;;;;;9.78;89.58;101339.63;5029041;28;20570;-48
2023/04/16 01:28:13;;;;;;;6.20;2.33;;;;;;;9.80;89.73;101334.59;5023775;28;20056;-48
2023/04/16 01:30:42;;;;;;;6.15;3.65;;;;;;;9.78;89.72;101339.63;5029454;28;20042;-44
2023/04/16 01:33:10;;;;;;;5.78;2.45;;;;;;;9.77;90.07;101335.25;5028347;28;20062;-50
2023/04/16 01:35:37;;;;;;;6.90;2.67;;;;;;;9.76;90.02;101336.41;5024829;28;20049;-44
2023/04/16 01:38:06;;;;;;;7.43;2.03;;;;;;;9.73;90.17;101326.81;5028314;28;20123;-44
2023/04/16 01:40:34;;;;;;;5.57;1.92;;;;;;;9.74;90.37;101342.22;5027293;28;20077;-44
2023/04/16 01:43:01;;;;;;;6.82;1.60;;;;;;;9.74;90.42;101330.38;5026969;28;20480;-44
2023/04/16 01:45:28;;;;;;;6.22;1.58;;;;;;;9.75;90.54;101337.53;5027650;28;20045;-44
2023/04/16 01:47:54;;;;;;;5.57;2.03;;;;;;;9.75;90.83;101338.34;5028911;28;20041;-49
2023/04/16 01:50:22;;;;;;;8.43;1.88;;;;;;;9.77;90.82;101326.94;5027848;28;20053;-45
2023/04/16 01:52:51;;;;;;;9.88;2.42;;;;;;;9.75;91.01;101334.75;5031410;28;20480;-48
2023/04/16 01:55:17;;;;;;;4.82;1.70;;;;;;;9.77;91.20;101343.53;5028969;28;20541;-45
2023/04/16 01:57:44;;;;;;;8.70;3.42;;;;;;;9.79;91.17;101342.06;5028719;28;20049;-45
2023/04/16 02:00:13;;;;;;;7.05;1.90;;;;;;;9.81;91.34;101339.00;5028507;28;20037;-46
2023/04/16 02:02:42;;;;;;;7.25;2.22;;;;;;;9.82;91.33;101345.34;5027589;28;20093;-47
2023/04/16 02:05:12;;;;;;;4.07;1.80;;;;;;;9.82;91.43;101340.63;5028790;28;20148;-44
2023/04/16 02:07:38;;;;;;;6.70;2.30;;;;;;;9.83;91.45;101347.78;5029214;28;20136;-44
2023/04/16 02:10:06;;;;;;;6.28;2.10;;;;;;;9.80;91.66;101349.22;5027044;28;20499;-44
2023/04/16 02:12:33;;;;;;;6.00;2.00;;;;;;;9.78;91.78;101340.47;5028156;28;20037;-44
2023/04/16 02:15:00;;;;;;;6.30;1.98;;;;;;;9.81;91.97;101336.22;5028672;28;20050;-46
2023/04/16 02:17:26;;;;;;;5.68;2.10;;;;;;;9.80;91.94;101337.34;5026868;28;20033;-46
2023/04/16 02:19:53;;;;;;;6.45;2.20;;;;;;;9.79;92.28;101347.59;5028950;28;20443;-50
2023/04/16 02:22:20;;;;;;;4.35;2.03;;;;;;;9.81;92.44;101347.28;5028433;28;20682;-44
2023/04/16 02:24:46;;;;;;;6.38;1.98;;;;;;;9.84;92.63;101352.19;5028292;28;20050;-44
2023/04/16 02:27:13;;;;;;;8.30;2.38;;;;;;;9.83;92.64;101347.78;5028159;28;20037;-45
2023/04/16 02:29:40;;;;;;;9.20;3.63;;;;;;;9.83;92.59;101347.78;5029147;28;20034;-52
2023/04/16 02:32:07;;;;;;;9.00;2.45;;;;;;;9.84;93.00;101348.59;5027319;28;20491;-44
2023/04/16 02:34:34;;;;;;;12.55;2.72;;;;;;;9.84;93.03;101340.28;5028050;28;20510;-44
2023/04/16 02:37:00;;;;;;;8.68;2.22;;;;;;;9.82;93.36;101335.88;5022810;28;20061;-45
2023/04/16 02:39:27;;;;;;;7.13;2.50;;;;;;;9.82;93.13;101348.13;5028085;28;20702;-46
2023/04/16 02:41:54;;;;;;;12.15;3.20;;;;;;;9.82;93.23;101335.09;5027858;28;20055;-45
2023/04/16 02:44:20;;;;;;;14.38;2.80;;;;;;;9.84;93.39;101343.06;5026867;28;20057;-45
2023/04/16 02:46:47;;;;;;;7.07;2.67;;;;;;;9.84;93.43;101335.59;5024080;28;20050;-48
2023/04/16 02:49:14;;;;;;;9.52;2.67;;;;;;;9.85;93.60;101342.72;5025637;28;20052;-45
2023/04/16 02:51:41;;;;;;;7.18;2.65;;;;;;;9.88;93.88;101344.03;5016669;28;20049;-45
2023/04/16 02:54:07;;;;;;;4.03;2.65;;;;;;;9.89;93.90;101340.94;5025523;28;20049;-45
2023/04/16 02:56:34;;;;;;;4.40;2.40;;;;;;;9.91;94.10;101338.66;5025328;28;20047;-46
2023/04/16 02:59:11;;;;;;;13.07;2.90;;;;;;;9.89;94.10;101334.59;5028095;28;20065;-45
2023/04/16 03:01:38;;;;;;;12.35;3.38;;;;;;;9.91;94.30;101335.91;5062322;22;20432;-45
2023/04/16 03:04:05;;;;;;;3.95;2.60;;;;;;;9.92;94.27;101340.28;5020105;28;20049;-47
2023/04/16 03:06:31;;;;;;;14.45;3.15;;;;;;;9.94;94.33;101337.19;5027206;28;20473;-48
2023/04/16 03:08:58;;;;;;;6.35;2.95;;;;;;;9.93;94.28;101333.59;5027490;28;20490;-47
2023/04/16 03:11:25;;;;;;;4.20;2.65;;;;;;;9.92;94.51;101334.75;5020148;28;20067;-43
2023/04/16 03:13:52;;;;;;;9.88;3.25;;;;;;;9.93;94.77;101341.91;5027459;28;20057;-45
2023/04/16 03:16:19;;;;;;;10.05;5.30;;;;;;;9.94;94.85;101340.78;5026863;28;20037;-46
2023/04/16 03:18:46;;;;;;;7.68;3.20;;;;;;;9.92;94.78;101340.28;5027883;28;20045;-48
2023/04/16 03:21:12;;;;;;;6.25;3.70;;;;;;;9.91;94.88;101341.44;5027680;28;20045;-46
2023/04/16 03:23:39;;;;;;;7.95;3.90;;;;;;;9.92;95.13;101328.41;5029147;28;20050;-45
2023/04/16 03:26:06;;;;;;;6.45;3.33;;;;;;;9.93;95.17;101336.38;5030224;28;20053;-47
2023/04/16 03:28:32;;;;;;;9.90;3.88;;;;;;;9.93;95.49;101336.38;5016193;28;20137;-49
2023/04/16 03:31:00;;;;;;;6.03;3.20;;;;;;;9.95;95.68;101334.13;5031681;28;20047;-46
2023/04/16 03:33:26;;;;;;;5.82;3.35;;;;;;;9.94;95.63;101331.66;5029073;28;20144;-49
2023/04/16 03:35:57;;;;;;;9.25;3.47;;;;;;;9.98;95.70;101343.72;5031536;28;20049;-44
2023/04/16 03:38:25;;;;;;;6.35;3.08;;;;;;;9.97;95.83;101337.38;5031339;28;20398;-44
2023/04/16 03:40:52;;;;;;;3.88;2.50;;;;;;;9.99;95.99;101337.84;5031345;28;20041;-44
2023/04/16 03:43:18;;;;;;;7.07;3.25;;;;;;;10.00;96.07;101342.25;5031450;28;20446;-46
2023/04/16 03:45:46;;;;;;;6.05;3.50;;;;;;;10.00;96.16;101333.94;5029939;28;20495;-45
2023/04/16 03:48:12;;;;;;;8.10;3.03;;;;;;;10.01;96.08;101338.31;5029395;28;20057;-48
2023/04/16 03:50:39;;;;;;;15.05;4.63;;;;;;;10.01;96.25;101327.25;5027359;28;20050;-45
2023/04/16 03:53:06;;;;;;;5.55;2.92;;;;;;;10.02;96.35;101339.97;5029250;28;20041;-45
2023/04/16 03:55:34;;;;;;;5.90;3.35;;;;;;;10.01;96.39;101338.31;5026780;28;20049;-44
2023/04/16 03:58:02;;;;;;;8.88;2.78;;;;;;;10.01;96.50;101338.31;5024492;28;20095;-45
2023/04/16 04:00:30;;;;;;;7.60;3.38;;;;;;;10.02;96.53;101334.44;5027955;28;20045;-49
2023/04/16 04:02:57;;;;;;;6.63;3.00;;;;;;;10.03;96.62;101338.84;5025029;28;20057;-44
2023/04/16 04:05:24;;;;;;;4.32;3.28;;;;;;;10.02;96.78;101328.06;5028892;28;20049;-43
2023/04/16 04:07:50;;;;;;;4.55;2.88;;;;;;;10.00;96.83;101325.66;5025882;28;20530;-45
2023/04/16 04:10:17;;;;;;;6.20;2.45;;;;;;;9.98;96.77;101322.38;5024435;28;20633;-47
2023/04/16 04:12:44;;;;;;;5.53;2.80;;;;;;;9.99;97.11;101315.72;5016370;28;20464;-44
2023/04/16 04:15:11;;;;;;;7.35;2.95;;;;;;;9.98;97.09;101314.06;5030192;28;20095;-45
2023/04/16 04:17:37;;;;;;;7.07;2.47;;;;;;;9.96;97.23;101310.84;5030848;28;20120;-44
2023/04/16 04:20:05;;;;;;;6.43;2.72;;;;;;;9.95;97.35;101312.00;5029950;28;20045;-48
2023/04/16 04:22:31;;;;;;;5.43;2.00;;;;;;;9.94;97.28;101318.66;5030503;28;20045;-44
2023/04/16 04:24:58;;;;;;;2.80;1.83;;;;;;;9.92;97.56;101318.16;5030361;28;20487;-44
2023/04/16 04:27:25;;;;;;;6.22;2.97;;;;;;;9.93;97.58;101319.78;5030132;28;20141;-48
2023/04/16 04:29:52;;;;;;;6.10;2.25;;;;;;;9.91;97.67;101322.06;5030570;28;20152;-45
2023/04/16 04:32:19;;;;;;;2.97;1.95;;;;;;;9.92;97.88;101318.16;5029998;28;20064;-44
2023/04/16 04:34:45;;;;;;;6.68;2.00;;;;;;;9.93;98.02;101319.78;5030046;28;20156;-52
2023/04/16 04:37:12;;;;;;;8.50;2.78;;;;;;;9.94;97.92;101315.88;5028457;28;20053;-47
2023/04/16 04:39:39;;;;;;;5.68;2.72;;;;;;;9.94;98.11;101317.84;5029032;28;20041;-47
2023/04/16 04:42:07;;;;;;;7.82;3.03;;;;;;;9.95;98.07;101322.25;5030490;28;20045;-44
2023/04/16 04:44:34;;;;;;;6.28;2.75;;;;;;;9.96;98.33;101315.53;5029317;28;20038;-44
2023/04/16 04:47:00;;;;;;;8.50;3.03;;;;;;;9.95;98.16;101317.53;5027633;28;20052;-46
2023/04/16 04:49:30;;;;;;;5.72;2.60;;;;;;;9.96;98.23;101321.91;5026948;28;20052;-48
2023/04/16 04:51:57;;;;;;;7.03;3.08;;;;;;;9.97;98.47;101325.47;5027507;28;20081;-46
2023/04/16 04:54:24;;;;;;;6.00;3.38;;;;;;;9.96;98.51;101319.13;5018281;28;20046;-44
2023/04/16 04:56:51;;;;;;;4.63;3.08;;;;;;;9.97;98.56;101334.59;5029782;28;20053;-50
2023/04/16 04:59:20;;;;;;;4.70;2.95;;;;;;;9.96;98.63;101330.19;5025377;28;20173;-49
2023/04/16 05:01:47;;;;;;;6.85;3.35;;;;;;;9.96;98.80;101335.72;5022740;28;20140;-45
2023/04/16 05:04:14;;;;;;;5.47;3.00;;;;;;;9.96;98.79;101337.66;5029297;28;20564;-44
2023/04/16 05:06:41;;;;;;;8.25;3.95;;;;;;;9.98;99.00;101341.75;5044083;28;20073;-44
2023/04/16 05:09:11;;;;;;;3.63;2.35;;;;;;;10.00;99.02;101342.25;5028501;28;20421;-44
2023/04/16 05:11:38;;;;;;;4.15;2.40;;;;;;;9.99;99.00;101339.78;5026540;28;20060;-44
2023/04/16 05:14:04;;;;;;;5.53;2.63;;;;;;;9.97;99.09;101337.38;5025698;28;20176;-44
2023/04/16 05:16:31;;;;;;;5.45;2.92;;;;;;;9.99;99.40;101345.31;5026571;28;20048;-53
2023/04/16 05:18:58;;;;;;;4.20;2.45;;;;;;;9.99;99.51;101351.69;5027867;28;20048;-44
2023/04/16 05:21:25;;;;;;;5.80;2.60;;;;;;;9.99;99.61;101357.22;5027282;28;20442;-45
2023/04/16 05:23:52;;;;;;;3.25;2.85;;;;;;;10.00;99.69;101358.03;5028413;28;20389;-44
2023/04/16 05:26:19;;;;;;;10.10;2.85;;;;;;;10.02;99.57;101361.28;5029278;28;20445;-44
2023/04/16 05:28:48;;;;;;;4.32;2.47;;;;;;;10.01;99.67;101356.88;5027550;28;20125;-47
2023/04/16 05:31:15;;;;;;;5.57;2.45;;;;;;;10.02;99.68;101364.84;5029704;28;20712;-46
2023/04/16 05:33:41;;;;;;;5.47;2.53;;;;;;;10.03;100.00;101363.72;5028417;28;20406;-45
2023/04/16 05:36:08;;;;;;;4.93;2.72;;;;;;;10.04;99.97;101354.28;5028251;28;20136;-44
2023/04/16 05:38:35;;;;;;;4.78;2.40;;;;;;;10.05;100.00;101355.91;5027836;28;20083;-44
2023/04/16 05:41:01;;;;;;;5.53;2.38;;;;;;;10.05;99.87;101355.91;5028354;28;20045;-44
2023/04/16 05:43:29;;;;;;;4.70;2.70;;;;;;;10.06;100.00;101362.25;5029045;28;21088;-44
2023/04/16 05:45:55;;;;;;;5.30;2.42;;;;;;;10.05;100.00;101353.16;5019949;28;20081;-49
2023/04/16 05:48:22;;;;;;;5.03;2.75;;;;;;;10.06;100.00;101365.81;5027851;28;20041;-45
2023/04/16 05:50:49;;;;;;;4.93;3.17;;;;;;;10.07;100.00;101361.91;5025542;28;20042;-45
2023/04/16 05:53:17;;;;;;;5.88;2.83;;;;;;;10.07;100.00;101358.34;5026497;28;20140;-44
2023/04/16 05:55:45;;;;;;;8.63;3.90;;;;;;;10.08;100.00;101371.03;5026548;28;20501;-44
2023/04/16 05:58:12;;;;;;;6.80;3.15;;;;;;;10.08;100.00;101366.31;5026947;28;20053;-46
2023/04/16 06:00:39;;;;;;;6.15;2.80;;;;;;;10.10;100.00;101375.09;5025850;28;20533;-44
2023/04/16 06:03:06;;;;;;;5.43;3.45;;;;;;;10.11;100.00;101376.72;5028587;28;20485;-46
2023/04/16 06:05:33;;;;;;;6.03;3.05;;;;;;;10.14;100.00;101381.63;5026507;28;20399;-44
2023/04/16 06:08:00;;;;;;;3.95;3.45;;;;;;;10.17;100.00;101380.97;5026099;28;20149;-43
2023/04/16 06:10:27;;;;;;;5.28;3.10;;;;;;;10.19;100.00;101388.97;5022738;28;20068;-45
2023/04/16 06:12:54;;;;;;;8.07;3.40;;;;;;;10.22;100.00;101380.00;5024313;28;20045;-44
2023/04/16 06:15:20;;;;;;;5.30;3.63;;;;;;;10.27;100.00;101385.38;5023508;28;20046;-49
2023/04/16 06:17:48;;;;;;;10.20;3.25;;;;;;;10.29;100.00;101389.44;5028336;28;20148;-44
2023/04/16 06:20:15;;;;;;;12.70;3.60;;;;;;;10.31;100.00;101395.47;5028621;28;20406;-45
2023/04/16 06:22:42;;;;;;;10.77;3.33;;;;;;;10.31;100.00;101397.41;5028567;28;20048;-43
2023/04/16 06:25:08;;;;;;;11.65;4.43;;;;;;;10.34;100.00;101394.00;5028541;28;20053;-45
2023/04/16 06:27:36;;;;;;;9.45;4.10;;;;;;;10.36;100.00;101392.53;5028619;28;20045;-44
2023/04/16 06:30:03;;;;;;;6.95;4.40;;;;;;;10.38;100.00;101393.00;5028237;28;20043;-49
2023/04/16 06:32:29;;;;;;;5.82;3.50;;;;;;;10.40;100.00;101395.47;5015842;28;20052;-48
2023/04/16 06:34:57;;;;;;;8.13;4.80;;;;;;;10.43;100.00;101405.06;5027105;28;20065;-44
2023/04/16 06:37:24;;;;;;;9.40;4.07;;;;;;;10.45;100.00;101400.00;5028469;28;20048;-44
2023/04/16 06:39:50;;;;;;;7.18;3.90;;;;;;;10.46;100.00;101404.41;5027791;28;20046;-45
2023/04/16 06:42:17;;;;;;;10.52;5.38;;;;;;;10.49;100.00;101403.72;5028646;28;20049;-48
2023/04/16 06:44:44;;;;;;;9.90;5.00;;;;;;;10.50;100.00;101408.94;5026794;28;20674;-46
2023/04/16 06:47:10;;;;;;;12.18;4.97;;;;;;;10.54;100.00;101411.88;5021366;28;20133;-48
2023/04/16 06:49:38;;;;;;;7.47;4.07;;;;;;;10.57;100.00;101408.44;5026357;28;20080;-48
2023/04/16 06:52:05;;;;;;;10.07;4.55;;;;;;;10.58;100.00;101412.84;5025597;28;20569;-44
2023/04/16 06:54:32;;;;;;;9.15;5.20;;;;;;;10.61;100.00;101407.47;5024389;28;20073;-46
2023/04/16 06:56:59;;;;;;;9.18;5.63;;;;;;;10.65;100.00;101402.06;5028555;28;20049;-44
2023/04/16 06:59:25;;;;;;;11.73;4.72;;;;;;;10.69;100.00;101414.13;5029526;28;20041;-44
2023/04/16 07:01:52;;;;;;;11.15;5.53;;;;;;;10.72;100.00;101419.00;5028314;28;20400;-44
2023/04/16 07:04:19;;;;;;;11.07;5.60;;;;;;;10.75;100.00;101415.59;5028584;28;20513;-44
2023/04/16 07:06:46;;;;;;;10.35;5.57;;;;;;;10.78;100.00;101412.13;5025952;28;20490;-43
2023/04/16 07:09:13;;;;;;;10.77;5.28;;;;;;;10.80;100.00;101418.16;5026039;28;20128;-46
2023/04/16 07:11:41;;;;;;;10.25;5.28;;;;;;;10.82;100.00;101418.66;5028470;28;20053;-48
2023/04/16 07:14:08;;;;;;;12.98;5.65;;;;;;;10.84;100.00;101421.88;5030834;28;20041;-44
2023/04/16 07:16:36;;;;;;;16.65;6.10;;;;;;;10.87;100.00;101421.22;5024882;28;20060;-44
2023/04/16 07:19:03;;;;;;;12.70;5.70;;;;;;;10.90;100.00;101426.13;5025571;28;20052;-46
2023/04/16 07:21:33;;;;;;;16.35;6.65;;;;;;;10.93;100.00;101436.53;5028013;28;20045;-51
2023/04/16 07:23:59;;;;;;;15.80;6.30;;;;;;;10.97;100.00;101431.94;5020949;28;20052;-50
2023/04/16 07:26:26;;;;;;;9.77;5.55;;;;;;;11.01;100.00;101441.25;5027342;28;20224;-45
2023/04/16 07:28:53;;;;;;;12.45;5.22;;;;;;;11.05;100.00;101442.19;5024188;28;20053;-46
2023/04/16 07:31:19;;;;;;;15.70;6.13;;;;;;;11.08;100.00;101438.75;5027322;28;20056;-51
2023/04/16 07:33:46;;;;;;;12.32;5.47;;;;;;;11.15;100.00;101439.06;5031864;28;20052;-44
2023/04/16 07:36:13;;;;;;;11.48;4.75;;;;;;;11.21;100.00;101440.50;5031074;28;20053;-44
2023/04/16 07:38:40;;;;;;;8.07;5.22;;;;;;;11.31;100.00;101442.09;5031131;28;20091;-46
2023/04/16 07:41:06;;;;;;;10.38;5.47;;;;;;;11.40;100.00;101440.09;5031517;28;20933;-45
2023/04/16 07:43:33;;;;;;;11.63;5.07;;;;;;;11.49;100.00;101449.97;5031093;28;20561;-47
2023/04/16 07:46:00;;;;;;;18.77;6.55;;;;;;;11.58;100.00;101444.41;5030880;28;20057;-45
2023/04/16 07:48:27;;;;;;;10.25;5.18;;;;;;;11.70;100.00;101446.50;5031548;28;20041;-46
2023/04/16 07:50:54;;;;;;;11.20;5.38;;;;;;;11.83;100.00;101442.66;5031334;28;20088;-46
2023/04/16 07:53:21;;;;;;;7.18;4.70;;;;;;;11.95;100.00;101451.88;5034006;28;20052;-47
2023/04/16 07:55:47;;;;;;;19.05;6.63;;;;;;;12.05;100.00;101445.91;5030889;28;20058;-52
2023/04/16 07:58:14;;;;;;;6.20;3.85;;;;;;;12.16;100.00;101446.31;5030875;28;20493;-45
2023/04/16 08:00:42;;;;;;;3.55;2.45;;;;;;;12.24;100.00;101442.66;5029697;28;20674;-45
2023/04/16 08:03:09;;;;;;;6.95;2.63;;;;;;;12.30;100.00;101457.97;5031040;28;20081;-47
2023/04/16 08:05:36;;;;;;;5.88;2.35;;;;;;;12.36;100.00;101459.41;5030783;28;20048;-52
2023/04/16 08:08:02;;;;;;;7.15;2.88;;;;;;;12.41;100.00;101464.72;5026148;28;20050;-44
2023/04/16 08:10:29;;;;;;;6.05;2.13;;;;;;;12.46;100.00;101458.97;5024166;28;20049;-43
2023/04/16 08:12:56;;;;;;;7.90;2.72;;;;;;;12.51;100.00;101455.97;5021805;28;20061;-46
2023/04/16 08:15:22;;;;;;;5.60;2.30;;;;;;;12.58;100.00;101464.56;5024153;28;20152;-45
2023/04/16 08:17:49;;;;;;;6.53;3.00;;;;;;;12.63;100.00;101463.53;5019926;28;20053;-47
2023/04/16 08:20:16;;;;;;;7.20;2.35;;;;;;;12.67;100.00;101468.09;5028244;28;20103;-49
2023/04/16 08:22:45;;;;;;;4.03;2.58;;;;;;;12.70;100.00;101464.63;5022952;28;20049;-45
2023/04/16 08:25:12;;;;;;;4.80;2.60;;;;;;;12.74;100.00;101465.56;5027426;28;20140;-43
2023/04/16 08:27:39;;;;;;;8.88;2.33;;;;;;;12.78;100.00;101468.47;5022348;28;20059;-45
2023/04/16 08:30:07;;;;;;;9.65;2.75;;;;;;;12.82;100.00;101463.84;5031830;28;20037;-45
2023/04/16 08:32:33;;;;;;;8.82;3.88;;;;;;;12.87;100.00;101465.59;5028462;28;20048;-48
2023/04/16 08:35:00;;;;;;;9.18;3.45;;;;;;;12.91;100.00;101469.31;5028477;28;20072;-48
2023/04/16 08:37:27;;;;;;;9.57;2.40;;;;;;;12.95;100.00;101473.00;5022804;28;20049;-46
2023/04/16 08:39:53;;;;;;;6.55;2.80;;;;;;;12.98;100.00;101472.31;5026640;28;20041;-46
2023/04/16 08:42:31;;;;;;;9.82;5.60;;;;;;;12.99;100.00;101473.97;5031343;28;20051;-47
2023/04/16 08:45:16;;;;;;;4.72;2.88;;;;;;;13.01;100.00;101478.03;5028397;28;20048;-48
2023/04/16 08:47:48;;;;;;;7.22;3.25;;;;;;;13.04;100.00;101476.53;5028196;28;20394;-47
2023/04/16 08:50:18;;;;;;;9.55;3.40;;;;;;;13.08;100.00;101483.06;5026859;28;20091;-46
2023/04/16 08:52:51;;;;;;;8.23;3.90;;;;;;;13.13;100.00;101477.28;5031449;28;20053;-50
2023/04/16 08:55:22;;;;;;;15.45;5.57;;;;;;;13.16;100.00;101479.34;5028056;28;20049;-54
2023/04/16 08:58:00;;;;;;;11.83;4.43;;;;;;;13.18;100.00;101488.19;5025390;28;20049;-51
2023/04/16 09:00:30;;;;;;;9.68;3.60;;;;;;;13.23;100.00;101490.72;5016874;28;20038;-47
2023/04/16 09:02:59;;;;;;;9.55;2.72;;;;;;;13.33;100.00;101495.84;5018795;28;20124;-50
2023/04/16 09:05:28;;;;;;;7.10;2.95;;;;;;;13.45;100.00;101495.84;5020609;28;20046;-51
2023/04/16 09:07:54;;;;;;;8.18;3.20;;;;;;;13.58;100.00;101491.91;5026567;28;20044;-48
2023/04/16 09:10:22;;;;;;;11.35;4.40;;;;;;;13.71;100.00;101498.31;5025280;28;20045;-47
2023/04/16 09:12:49;;;;;;;6.97;2.33;;;;;;;13.79;100.00;101505.72;5023433;28;20045;-50
2023/04/16 09:15:15;;;;;;;4.88;1.88;;;;;;;13.85;100.00;101507.91;5026234;28;20124;-48
2023/04/16 09:17:42;;;;;;;7.13;2.10;;;;;;;13.91;100.00;101512.09;5022739;28;20180;-47
2023/04/16 09:20:09;;;;;;;5.10;1.52;;;;;;;13.96;100.00;101495.16;5027337;28;20049;-45
2023/04/16 09:22:37;;;;;;;7.22;3.35;;;;;;;14.06;100.00;101501.41;5025763;28;20054;-48
2023/04/16 09:25:04;;;;;;;11.73;2.80;;;;;;;14.16;100.00;101504.53;5026320;28;20057;-47
2023/04/16 09:27:31;;;;;;;12.52;3.30;;;;;;;14.21;100.00;101504.28;5023041;28;20045;-48
2023/04/16 09:29:58;;;;;;;5.45;3.35;;;;;;;14.26;100.00;101508.81;5027814;28;20049;-50
2023/04/16 09:32:26;;;;;;;10.57;2.70;;;;;;;14.32;100.00;101515.78;5028691;28;20048;-49
2023/04/16 09:35:00;;;;;;;5.00;2.58;;;;;;;14.40;100.00;101512.84;5027562;28;20033;-46
2023/04/16 09:37:30;;;;;;;6.30;2.80;;;;;;;14.50;100.00;101517.13;5026385;28;20091;-47
2023/04/16 09:39:58;;;;;;;7.75;2.63;;;;;;;14.56;100.00;101521.28;5026696;28;20045;-48
2023/04/16 09:42:26;;;;;;;8.55;3.33;;;;;;;14.62;100.00;101523.47;5021430;28;20110;-49
2023/04/16 09:44:54;;;;;;;8.95;3.00;;;;;;;14.69;100.00;101531.25;5016954;28;20049;-47
2023/04/16 09:47:44;;;;;;;10.27;3.25;;;;;;;14.74;100.00;101532.97;5018871;28;20183;-48
2023/04/16 09:50:17;;;;;;;8.80;3.10;;;;;;;14.75;100.00;101535.38;5023562;28;20069;-47
2023/04/16 09:52:49;;;;;;;8.90;3.35;;;;;;;14.73;100.00;101534.94;5024350;28;20041;-49
2023/04/16 09:55:15;;;;;;;12.18;3.00;;;;;;;14.68;100.00;101537.97;5024800;28;20046;-47
2023/04/16 09:57:42;;;;;;;6.35;2.90;;;;;;;14.63;100.00;101538.22;5023576;28;20046;-44
2023/04/16 10:00:10;;;;;;;10.23;4.20;;;;;;;14.56;100.00;101535.22;5022802;28;20068;-46
2023/04/16 10:02:40;;;;;;;5.35;2.80;;;;;;;14.52;100.00;101549.03;5025776;28;20050;-41
2023/04/16 10:05:08;;;;;;;6.15;2.97;;;;;;;14.51;100.00;101541.84;5023318;28;20061;-48
2023/04/16 10:07:36;;;;;;;5.82;2.55;;;;;;;14.51;100.00;101555.78;5025648;28;20052;-42
2023/04/16 10:10:03;;;;;;;15.05;4.45;;;;;;;14.53;100.00;101549.88;5024199;28;20045;-47
2023/04/16 10:12:31;;;;;;;8.70;3.25;;;;;;;14.60;100.00;101545.31;5020634;28;20049;-44
2023/04/16 10:14:58;;;;;;;8.27;3.15;;;;;;;14.73;100.00;101543.28;5021534;28;20046;-44
2023/04/16 10:17:28;;;;;;;9.85;3.35;;;;;;;14.87;100.00;101551.25;5020431;28;20073;-44
2023/04/16 10:19:56;;;;;;;8.77;2.47;;;;;;;14.97;100.00;101557.13;5026751;28;20048;-46
2023/04/16 10:22:25;;;;;;;7.35;2.70;;;;;;;15.05;100.00;101566.50;5025493;28;20121;-46
2023/04/16 10:24:52;;;;;;;4.80;2.58;;;;;;;15.06;100.00;101565.34;5041694;28;20053;-46
2023/04/16 10:27:19;;;;;;;9.00;2.80;;;;;;;15.04;100.00;101560.13;5024926;28;20048;-47
2023/04/16 10:29:47;;;;;;;12.18;2.90;;;;;;;15.04;100.00;101565.69;5031885;28;20120;-51
2023/04/16 10:32:16;;;;;;;5.47;2.60;;;;;;;15.06;100.00;101563.34;5031025;28;20366;-48
2023/04/16 10:34:43;;;;;;;8.50;3.25;;;;;;;15.07;100.00;101562.19;5031494;28;20693;-49
2023/04/16 10:37:09;;;;;;;8.38;3.33;;;;;;;15.07;100.00;101564.97;5030268;28;20445;-46
2023/04/16 10:39:37;;;;;;;11.95;3.17;;;;;;;15.09;100.00;101557.06;5032176;28;20128;-45
2023/04/16 10:42:11;;;;;;;9.13;3.00;;;;;;;15.10;100.00;101555.09;5031910;28;20045;-44
2023/04/16 10:44:41;;;;;;;7.20;2.30;;;;;;;15.09;100.00;101561.84;5032330;28;20462;-46
2023/04/16 10:47:12;;;;;;;8.32;2.75;;;;;;;15.09;100.00;101557.06;5019722;28;20107;-51
2023/04/16 10:49:42;;;;;;;5.40;2.80;;;;;;;15.09;100.00;101562.66;5032908;28;20087;-45
2023/04/16 10:52:17;;;;;;;9.85;2.67;;;;;;;15.08;100.00;101558.25;5032178;28;20731;-44
2023/04/16 10:54:45;;;;;;;6.63;2.40;;;;;;;15.08;100.00;101566.63;5035015;28;20069;-44
2023/04/16 10:57:17;;;;;;;10.52;2.70;;;;;;;15.10;100.00;101563.47;5032268;28;20041;-50
2023/04/16 10:59:45;;;;;;;7.82;1.65;;;;;;;15.13;99.83;101563.56;5032019;28;20131;-45
2023/04/16 11:02:13;;;;;;;11.90;2.65;;;;;;;15.18;99.28;101571.69;5032184;28;20079;-45
2023/04/16 11:04:45;;;;;;;9.50;3.58;;;;;;;15.25;99.10;101568.25;5032263;28;20498;-45
2023/04/16 11:07:17;;;;;;;9.98;2.45;;;;;;;15.35;98.32;101569.72;5023980;28;20037;-45
2023/04/16 11:10:01;;;;;;;6.63;1.83;;;;;;;15.50;98.02;101555.84;5032163;28;20041;-45
2023/04/16 11:12:28;;;;;;;6.97;2.00;;;;;;;15.67;97.29;101560.25;5031887;28;20084;-46
2023/04/16 11:14:59;;;;;;;10.55;3.03;;;;;;;15.84;96.61;101559.88;5031501;28;20048;-46
2023/04/16 11:17:35;;;;;;;8.10;2.63;;;;;;;16.01;96.14;101559.53;5031888;28;20561;-45
2023/04/16 11:20:03;;;;;;;7.00;2.60;;;;;;;16.17;95.62;101551.94;5031488;28;20038;-49
2023/04/16 11:22:45;;;;;;;12.82;2.90;;;;;;;16.49;94.74;101563.03;5032318;28;20495;-49
2023/04/16 11:25:18;;;;;;;6.78;1.95;;;;;;;16.80;93.84;101560.13;5031636;28;20061;-44
2023/04/16 11:27:45;;;;;;;8.40;2.03;;;;;;;17.05;93.04;101565.06;5031899;28;20049;-50